Hovedside
METAR-TAF:

METAR-TAF

Lufthavner :

Le Havre, Frankrike

breddegrad: 49-31N, lengdegrad: 000-04E, høyde over havet: 100 m

Gjeldene værobservasjon

Denne rapporten ble laget for 19 minutter siden, klokken 15:00 UTC
Vind 10 kt fra Nord
Temperatur 26°C
Luftfuktighet 51%
Trykk 1019 hPa
Sikt 10 km eller mer
ingen skyer under 1500 m og ingen bygeskyer

METAR: LFOH 181500Z AUTO 36010KT CAVOK 26/15 Q1019 NOSIG

Tid: 17:19 (15:19 UTC)

Varsel

Denne rapporten ble laget for 4 timer og 19 minutter siden, klokken 11:00 UTC
Varsel gyldig fra 18. klokken 12 UTC til 19. klokken 12 UTC
Vind 4 kt fra skiftende retning
Sikt 10 km eller mer
ingen skyer under 1500 m og ingen bygeskyer
Blir
fra 18. klokken 17 UTC til 18. klokken 19 UTC
Vind 10 kt fra Øst-nordøst

TAF: LFOH 181100Z 1812/1912 VRB04KT CAVOK BECMG 1817/1819 07010KT

Værobservasjoner og værvarsel for over 4000 flyplasser (METAR- og TAF-rapporter).

Tilgjengelige stasjoner er representert av de røde og gule prikkene på kartet.

Hold musepekeren over prikken for å se navnet på stasjonen.

Klikk så for å se værobservasjoner og -varsler.

For å forandre kartet kan du klikke på den grønne knappen med svart kryss for å zoome inn, på den grønne knappen med strek for å zoome ut, eller på de grønne pilene for å se tilstøtende kart.


METAR-TAF: